sensor_id;sensor_type;location;lat;lon;timestamp;P1;durP1;ratioP1;P2;durP2;ratioP2
7029;SDS011;3556;53.500;10.176;2023-03-23T00:01:57;8.47;;;7.00;;
7029;SDS011;3556;53.500;10.176;2023-03-23T00:04:22;9.93;;;7.50;;
7029;SDS011;3556;53.500;10.176;2023-03-23T00:06:51;12.50;;;7.63;;
7029;SDS011;3556;53.500;10.176;2023-03-23T00:09:16;12.30;;;8.60;;
7029;SDS011;3556;53.500;10.176;2023-03-23T00:11:48;8.03;;;7.23;;
7029;SDS011;3556;53.500;10.176;2023-03-23T00:14:15;8.43;;;7.80;;
7029;SDS011;3556;53.500;10.176;2023-03-23T00:16:41;10.40;;;7.97;;
7029;SDS011;3556;53.500;10.176;2023-03-23T00:19:11;9.13;;;8.43;;
7029;SDS011;3556;53.500;10.176;2023-03-23T00:21:38;10.23;;;8.00;;
7029;SDS011;3556;53.500;10.176;2023-03-23T00:24:10;10.10;;;9.20;;
7029;SDS011;3556;53.500;10.176;2023-03-23T00:26:40;10.47;;;9.37;;
7029;SDS011;3556;53.500;10.176;2023-03-23T00:29:10;10.00;;;9.13;;
7029;SDS011;3556;53.500;10.176;2023-03-23T00:31:44;14.30;;;9.10;;
7029;SDS011;3556;53.500;10.176;2023-03-23T00:34:18;13.50;;;11.13;;
7029;SDS011;3556;53.500;10.176;2023-03-23T00:36:48;14.83;;;11.63;;
7029;SDS011;3556;53.500;10.176;2023-03-23T00:39:16;14.63;;;11.43;;
7029;SDS011;3556;53.500;10.176;2023-03-23T00:41:43;16.30;;;11.57;;
7029;SDS011;3556;53.500;10.176;2023-03-23T00:44:09;16.57;;;11.67;;
7029;SDS011;3556;53.500;10.176;2023-03-23T00:46:35;18.73;;;12.77;;
7029;SDS011;3556;53.500;10.176;2023-03-23T00:49:09;15.33;;;12.60;;
7029;SDS011;3556;53.500;10.176;2023-03-23T00:51:37;18.00;;;12.30;;
7029;SDS011;3556;53.500;10.176;2023-03-23T00:54:03;16.47;;;12.97;;
7029;SDS011;3556;53.500;10.176;2023-03-23T00:56:29;14.33;;;12.73;;
7029;SDS011;3556;53.500;10.176;2023-03-23T00:58:55;17.57;;;12.83;;
7029;SDS011;3556;53.500;10.176;2023-03-23T01:01:20;25.70;;;13.90;;
7029;SDS011;3556;53.500;10.176;2023-03-23T01:03:46;19.57;;;14.10;;
7029;SDS011;3556;53.500;10.176;2023-03-23T01:06:11;21.27;;;13.73;;
7029;SDS011;3556;53.500;10.176;2023-03-23T01:08:40;19.13;;;13.63;;
7029;SDS011;3556;53.500;10.176;2023-03-23T01:11:10;24.50;;;14.07;;
7029;SDS011;3556;53.500;10.176;2023-03-23T01:13:41;18.17;;;13.87;;
7029;SDS011;3556;53.500;10.176;2023-03-23T01:16:07;16.47;;;13.40;;
7029;SDS011;3556;53.500;10.176;2023-03-23T01:18:33;19.03;;;13.30;;
7029;SDS011;3556;53.500;10.176;2023-03-23T01:21:03;27.67;;;13.10;;
7029;SDS011;3556;53.500;10.176;2023-03-23T01:23:31;16.73;;;13.13;;
7029;SDS011;3556;53.500;10.176;2023-03-23T01:26:02;15.47;;;12.87;;
7029;SDS011;3556;53.500;10.176;2023-03-23T01:28:38;18.87;;;13.10;;
7029;SDS011;3556;53.500;10.176;2023-03-23T01:31:05;25.60;;;12.83;;
7029;SDS011;3556;53.500;10.176;2023-03-23T01:33:37;17.40;;;13.17;;
7029;SDS011;3556;53.500;10.176;2023-03-23T01:36:04;21.47;;;12.90;;
7029;SDS011;3556;53.500;10.176;2023-03-23T01:38:32;15.47;;;13.30;;
7029;SDS011;3556;53.500;10.176;2023-03-23T01:40:58;18.53;;;13.47;;
7029;SDS011;3556;53.500;10.176;2023-03-23T01:43:24;20.80;;;13.97;;
7029;SDS011;3556;53.500;10.176;2023-03-23T01:45:50;15.30;;;13.17;;
7029;SDS011;3556;53.500;10.176;2023-03-23T01:51:06;14.83;;;13.00;;
7029;SDS011;3556;53.500;10.176;2023-03-23T01:53:33;22.40;;;13.47;;
7029;SDS011;3556;53.500;10.176;2023-03-23T01:56:02;19.30;;;13.50;;
7029;SDS011;3556;53.500;10.176;2023-03-23T01:58:30;16.03;;;12.23;;
7029;SDS011;3556;53.500;10.176;2023-03-23T02:00:58;20.47;;;12.90;;
7029;SDS011;3556;53.500;10.176;2023-03-23T02:03:28;18.83;;;12.83;;
7029;SDS011;3556;53.500;10.176;2023-03-23T02:05:56;16.60;;;13.03;;
7029;SDS011;3556;53.500;10.176;2023-03-23T02:08:28;14.60;;;12.70;;
7029;SDS011;3556;53.500;10.176;2023-03-23T02:10:57;24.17;;;13.70;;
7029;SDS011;3556;53.500;10.176;2023-03-23T02:13:23;18.40;;;12.93;;
7029;SDS011;3556;53.500;10.176;2023-03-23T02:18:34;20.60;;;13.97;;
7029;SDS011;3556;53.500;10.176;2023-03-23T02:21:13;21.17;;;14.07;;
7029;SDS011;3556;53.500;10.176;2023-03-23T02:26:53;17.50;;;13.53;;
7029;SDS011;3556;53.500;10.176;2023-03-23T02:38:15;15.80;;;13.30;;
7029;SDS011;3556;53.500;10.176;2023-03-23T02:40:45;16.77;;;14.03;;
7029;SDS011;3556;53.500;10.176;2023-03-23T02:43:14;17.80;;;13.80;;
7029;SDS011;3556;53.500;10.176;2023-03-23T02:45:46;15.20;;;13.60;;
7029;SDS011;3556;53.500;10.176;2023-03-23T02:48:13;18.33;;;13.40;;
7029;SDS011;3556;53.500;10.176;2023-03-23T02:50:43;21.33;;;14.10;;
7029;SDS011;3556;53.500;10.176;2023-03-23T02:53:12;16.97;;;13.30;;
7029;SDS011;3556;53.500;10.176;2023-03-23T02:55:41;18.80;;;14.00;;
7029;SDS011;3556;53.500;10.176;2023-03-23T02:58:09;23.47;;;13.50;;
7029;SDS011;3556;53.500;10.176;2023-03-23T03:00:35;22.43;;;13.83;;
7029;SDS011;3556;53.500;10.176;2023-03-23T03:03:01;14.50;;;13.00;;
7029;SDS011;3556;53.500;10.176;2023-03-23T03:05:44;13.90;;;12.23;;
7029;SDS011;3556;53.500;10.176;2023-03-23T03:08:37;16.27;;;13.23;;
7029;SDS011;3556;53.500;10.176;2023-03-23T03:11:16;19.03;;;13.30;;
7029;SDS011;3556;53.500;10.176;2023-03-23T03:16:20;18.10;;;13.43;;
7029;SDS011;3556;53.500;10.176;2023-03-23T03:19:07;17.93;;;12.97;;
7029;SDS011;3556;53.500;10.176;2023-03-23T03:21:42;17.00;;;14.00;;
7029;SDS011;3556;53.500;10.176;2023-03-23T03:24:12;15.00;;;13.20;;
7029;SDS011;3556;53.500;10.176;2023-03-23T03:26:43;21.47;;;13.60;;
7029;SDS011;3556;53.500;10.176;2023-03-23T03:29:12;17.13;;;13.50;;
7029;SDS011;3556;53.500;10.176;2023-03-23T03:31:43;14.47;;;12.97;;
7029;SDS011;3556;53.500;10.176;2023-03-23T03:34:11;15.33;;;13.53;;
7029;SDS011;3556;53.500;10.176;2023-03-23T03:36:42;16.23;;;14.23;;
7029;SDS011;3556;53.500;10.176;2023-03-23T03:39:11;20.97;;;13.90;;
7029;SDS011;3556;53.500;10.176;2023-03-23T03:41:39;20.17;;;13.83;;
7029;SDS011;3556;53.500;10.176;2023-03-23T03:44:05;17.10;;;14.07;;
7029;SDS011;3556;53.500;10.176;2023-03-23T03:46:32;16.20;;;13.70;;
7029;SDS011;3556;53.500;10.176;2023-03-23T03:49:02;17.37;;;12.97;;
7029;SDS011;3556;53.500;10.176;2023-03-23T03:51:30;16.30;;;14.53;;
7029;SDS011;3556;53.500;10.176;2023-03-23T03:53:57;15.40;;;13.80;;
7029;SDS011;3556;53.500;10.176;2023-03-23T03:56:23;15.37;;;13.43;;
7029;SDS011;3556;53.500;10.176;2023-03-23T03:58:49;15.40;;;13.90;;
7029;SDS011;3556;53.500;10.176;2023-03-23T04:01:16;19.67;;;14.17;;
7029;SDS011;3556;53.500;10.176;2023-03-23T04:03:43;17.37;;;14.07;;
7029;SDS011;3556;53.500;10.176;2023-03-23T04:06:09;17.00;;;13.80;;
7029;SDS011;3556;53.500;10.176;2023-03-23T04:08:37;17.13;;;13.80;;
7029;SDS011;3556;53.500;10.176;2023-03-23T04:11:04;19.33;;;14.70;;
7029;SDS011;3556;53.500;10.176;2023-03-23T04:13:30;16.70;;;14.70;;
7029;SDS011;3556;53.500;10.176;2023-03-23T04:15:56;21.20;;;15.00;;
7029;SDS011;3556;53.500;10.176;2023-03-23T04:18:22;15.73;;;14.13;;
7029;SDS011;3556;53.500;10.176;2023-03-23T04:20:49;15.97;;;14.30;;
7029;SDS011;3556;53.500;10.176;2023-03-23T04:23:16;15.43;;;13.93;;
7029;SDS011;3556;53.500;10.176;2023-03-23T04:25:48;16.10;;;13.50;;
7029;SDS011;3556;53.500;10.176;2023-03-23T04:28:15;17.40;;;14.40;;
7029;SDS011;3556;53.500;10.176;2023-03-23T04:30:44;15.13;;;13.53;;
7029;SDS011;3556;53.500;10.176;2023-03-23T04:33:13;20.40;;;14.60;;
7029;SDS011;3556;53.500;10.176;2023-03-23T04:35:40;17.20;;;14.63;;
7029;SDS011;3556;53.500;10.176;2023-03-23T04:38:07;17.10;;;14.00;;
7029;SDS011;3556;53.500;10.176;2023-03-23T04:40:37;20.60;;;14.27;;
7029;SDS011;3556;53.500;10.176;2023-03-23T04:43:04;18.03;;;15.27;;
7029;SDS011;3556;53.500;10.176;2023-03-23T04:45:30;17.37;;;15.33;;
7029;SDS011;3556;53.500;10.176;2023-03-23T04:47:57;18.33;;;15.97;;
7029;SDS011;3556;53.500;10.176;2023-03-23T04:50:24;20.03;;;15.30;;
7029;SDS011;3556;53.500;10.176;2023-03-23T04:52:52;18.17;;;14.37;;
7029;SDS011;3556;53.500;10.176;2023-03-23T04:55:19;17.80;;;15.40;;
7029;SDS011;3556;53.500;10.176;2023-03-23T04:57:48;17.27;;;15.00;;
7029;SDS011;3556;53.500;10.176;2023-03-23T05:00:14;16.57;;;14.87;;
7029;SDS011;3556;53.500;10.176;2023-03-23T05:02:41;17.23;;;15.30;;
7029;SDS011;3556;53.500;10.176;2023-03-23T05:05:09;15.60;;;14.00;;
7029;SDS011;3556;53.500;10.176;2023-03-23T05:07:40;17.97;;;14.13;;
7029;SDS011;3556;53.500;10.176;2023-03-23T05:10:07;15.67;;;13.70;;
7029;SDS011;3556;53.500;10.176;2023-03-23T05:12:34;16.70;;;13.27;;
7029;SDS011;3556;53.500;10.176;2023-03-23T05:15:00;14.33;;;12.47;;
7029;SDS011;3556;53.500;10.176;2023-03-23T05:17:26;13.50;;;12.10;;
7029;SDS011;3556;53.500;10.176;2023-03-23T05:19:52;13.57;;;12.17;;
7029;SDS011;3556;53.500;10.176;2023-03-23T05:22:18;12.87;;;11.67;;
7029;SDS011;3556;53.500;10.176;2023-03-23T05:24:45;12.60;;;11.50;;
7029;SDS011;3556;53.500;10.176;2023-03-23T05:27:16;12.43;;;10.63;;
7029;SDS011;3556;53.500;10.176;2023-03-23T05:29:44;11.93;;;10.70;;
7029;SDS011;3556;53.500;10.176;2023-03-23T05:32:13;12.13;;;11.00;;
7029;SDS011;3556;53.500;10.176;2023-03-23T05:34:40;10.80;;;9.93;;
7029;SDS011;3556;53.500;10.176;2023-03-23T05:37:07;11.80;;;9.80;;
7029;SDS011;3556;53.500;10.176;2023-03-23T05:39:34;13.33;;;9.93;;
7029;SDS011;3556;53.500;10.176;2023-03-23T05:42:00;10.70;;;9.77;;
7029;SDS011;3556;53.500;10.176;2023-03-23T05:44:26;12.23;;;9.43;;
7029;SDS011;3556;53.500;10.176;2023-03-23T05:46:52;11.70;;;10.60;;
7029;SDS011;3556;53.500;10.176;2023-03-23T05:49:18;13.60;;;8.77;;
7029;SDS011;3556;53.500;10.176;2023-03-23T05:51:44;11.43;;;8.50;;
7029;SDS011;3556;53.500;10.176;2023-03-23T05:54:11;9.83;;;8.93;;
7029;SDS011;3556;53.500;10.176;2023-03-23T05:56:37;8.73;;;8.10;;
7029;SDS011;3556;53.500;10.176;2023-03-23T05:59:03;12.67;;;8.13;;
7029;SDS011;3556;53.500;10.176;2023-03-23T06:01:29;8.00;;;7.50;;
7029;SDS011;3556;53.500;10.176;2023-03-23T06:03:56;11.80;;;7.80;;
7029;SDS011;3556;53.500;10.176;2023-03-23T06:06:23;8.23;;;7.43;;
7029;SDS011;3556;53.500;10.176;2023-03-23T06:08:49;10.00;;;7.33;;
7029;SDS011;3556;53.500;10.176;2023-03-23T06:11:15;8.60;;;7.00;;
7029;SDS011;3556;53.500;10.176;2023-03-23T06:13:41;11.80;;;7.80;;
7029;SDS011;3556;53.500;10.176;2023-03-23T06:16:07;8.83;;;7.30;;
7029;SDS011;3556;53.500;10.176;2023-03-23T06:18:33;7.40;;;6.80;;
7029;SDS011;3556;53.500;10.176;2023-03-23T06:21:01;7.03;;;6.50;;
7029;SDS011;3556;53.500;10.176;2023-03-23T06:23:28;7.10;;;6.40;;
7029;SDS011;3556;53.500;10.176;2023-03-23T06:25:55;6.83;;;6.23;;
7029;SDS011;3556;53.500;10.176;2023-03-23T06:28:24;6.40;;;5.90;;
7029;SDS011;3556;53.500;10.176;2023-03-23T06:30:50;6.00;;;5.70;;
7029;SDS011;3556;53.500;10.176;2023-03-23T06:33:16;6.60;;;6.00;;
7029;SDS011;3556;53.500;10.176;2023-03-23T06:35:42;5.43;;;5.03;;
7029;SDS011;3556;53.500;10.176;2023-03-23T06:38:08;6.50;;;5.90;;
7029;SDS011;3556;53.500;10.176;2023-03-23T06:40:34;5.90;;;5.53;;
7029;SDS011;3556;53.500;10.176;2023-03-23T06:43:01;4.77;;;4.67;;
7029;SDS011;3556;53.500;10.176;2023-03-23T06:45:28;6.53;;;5.20;;
7029;SDS011;3556;53.500;10.176;2023-03-23T06:47:55;7.33;;;5.50;;
7029;SDS011;3556;53.500;10.176;2023-03-23T06:50:21;6.07;;;5.47;;
7029;SDS011;3556;53.500;10.176;2023-03-23T06:52:47;5.97;;;4.97;;
7029;SDS011;3556;53.500;10.176;2023-03-23T06:55:14;5.23;;;4.80;;
7029;SDS011;3556;53.500;10.176;2023-03-23T06:57:42;5.00;;;4.23;;
7029;SDS011;3556;53.500;10.176;2023-03-23T07:00:09;4.77;;;4.53;;
7029;SDS011;3556;53.500;10.176;2023-03-23T07:02:38;4.73;;;4.40;;
7029;SDS011;3556;53.500;10.176;2023-03-23T07:05:05;4.40;;;4.20;;
7029;SDS011;3556;53.500;10.176;2023-03-23T07:07:32;5.07;;;4.23;;
7029;SDS011;3556;53.500;10.176;2023-03-23T07:09:57;4.00;;;3.83;;
7029;SDS011;3556;53.500;10.176;2023-03-23T07:12:23;4.20;;;4.00;;
7029;SDS011;3556;53.500;10.176;2023-03-23T07:14:49;4.43;;;4.23;;
7029;SDS011;3556;53.500;10.176;2023-03-23T07:17:15;4.40;;;4.10;;
7029;SDS011;3556;53.500;10.176;2023-03-23T07:19:40;5.10;;;4.60;;
7029;SDS011;3556;53.500;10.176;2023-03-23T07:22:06;4.80;;;4.40;;
7029;SDS011;3556;53.500;10.176;2023-03-23T07:24:32;4.13;;;4.03;;
7029;SDS011;3556;53.500;10.176;2023-03-23T07:26:59;4.60;;;4.40;;
7029;SDS011;3556;53.500;10.176;2023-03-23T07:29:25;5.37;;;4.53;;
7029;SDS011;3556;53.500;10.176;2023-03-23T07:31:51;5.20;;;4.70;;
7029;SDS011;3556;53.500;10.176;2023-03-23T07:34:18;4.03;;;3.80;;
7029;SDS011;3556;53.500;10.176;2023-03-23T07:36:45;6.60;;;4.00;;
7029;SDS011;3556;53.500;10.176;2023-03-23T07:39:11;4.10;;;3.80;;
7029;SDS011;3556;53.500;10.176;2023-03-23T07:41:37;4.33;;;3.90;;
7029;SDS011;3556;53.500;10.176;2023-03-23T07:44:03;4.43;;;4.33;;
7029;SDS011;3556;53.500;10.176;2023-03-23T07:46:30;4.13;;;4.00;;
7029;SDS011;3556;53.500;10.176;2023-03-23T07:48:56;3.77;;;3.67;;
7029;SDS011;3556;53.500;10.176;2023-03-23T07:51:22;4.13;;;3.93;;
7029;SDS011;3556;53.500;10.176;2023-03-23T07:53:48;4.30;;;4.10;;
7029;SDS011;3556;53.500;10.176;2023-03-23T07:56:15;6.53;;;4.23;;
7029;SDS011;3556;53.500;10.176;2023-03-23T07:58:44;4.80;;;4.43;;
7029;SDS011;3556;53.500;10.176;2023-03-23T08:01:11;4.40;;;4.10;;
7029;SDS011;3556;53.500;10.176;2023-03-23T08:03:37;4.80;;;4.50;;
7029;SDS011;3556;53.500;10.176;2023-03-23T08:06:03;5.03;;;4.83;;
7029;SDS011;3556;53.500;10.176;2023-03-23T08:08:30;6.43;;;5.87;;
7029;SDS011;3556;53.500;10.176;2023-03-23T08:10:56;5.80;;;5.40;;
7029;SDS011;3556;53.500;10.176;2023-03-23T08:13:22;4.93;;;4.40;;
7029;SDS011;3556;53.500;10.176;2023-03-23T08:15:48;5.73;;;5.43;;
7029;SDS011;3556;53.500;10.176;2023-03-23T08:18:14;5.50;;;5.20;;
7029;SDS011;3556;53.500;10.176;2023-03-23T08:20:40;5.87;;;5.57;;
7029;SDS011;3556;53.500;10.176;2023-03-23T08:23:06;6.50;;;6.00;;
7029;SDS011;3556;53.500;10.176;2023-03-23T08:25:32;5.77;;;5.47;;
7029;SDS011;3556;53.500;10.176;2023-03-23T08:27:58;7.70;;;5.90;;
7029;SDS011;3556;53.500;10.176;2023-03-23T08:30:26;6.67;;;6.17;;
7029;SDS011;3556;53.500;10.176;2023-03-23T08:32:54;6.80;;;6.43;;
7029;SDS011;3556;53.500;10.176;2023-03-23T08:35:21;6.73;;;6.43;;
7029;SDS011;3556;53.500;10.176;2023-03-23T08:37:47;7.47;;;6.70;;
7029;SDS011;3556;53.500;10.176;2023-03-23T08:40:16;5.57;;;5.37;;
7029;SDS011;3556;53.500;10.176;2023-03-23T08:42:44;7.10;;;6.80;;
7029;SDS011;3556;53.500;10.176;2023-03-23T08:45:12;6.30;;;6.00;;
7029;SDS011;3556;53.500;10.176;2023-03-23T08:47:40;6.37;;;6.07;;
7029;SDS011;3556;53.500;10.176;2023-03-23T08:50:06;5.07;;;4.97;;
7029;SDS011;3556;53.500;10.176;2023-03-23T08:52:33;5.07;;;4.40;;
7029;SDS011;3556;53.500;10.176;2023-03-23T08:54:59;3.70;;;3.60;;
7029;SDS011;3556;53.500;10.176;2023-03-23T08:57:25;5.00;;;3.90;;
7029;SDS011;3556;53.500;10.176;2023-03-23T08:59:51;5.40;;;3.50;;
7029;SDS011;3556;53.500;10.176;2023-03-23T09:02:19;3.40;;;3.20;;
7029;SDS011;3556;53.500;10.176;2023-03-23T09:04:45;5.97;;;3.17;;
7029;SDS011;3556;53.500;10.176;2023-03-23T09:07:11;2.60;;;2.40;;
7029;SDS011;3556;53.500;10.176;2023-03-23T09:09:39;2.20;;;2.10;;
7029;SDS011;3556;53.500;10.176;2023-03-23T09:12:06;2.10;;;1.90;;
7029;SDS011;3556;53.500;10.176;2023-03-23T09:14:33;2.43;;;2.00;;
7029;SDS011;3556;53.500;10.176;2023-03-23T09:16:59;1.63;;;1.53;;
7029;SDS011;3556;53.500;10.176;2023-03-23T09:19:25;1.37;;;1.30;;
7029;SDS011;3556;53.500;10.176;2023-03-23T09:21:51;1.37;;;1.27;;
7029;SDS011;3556;53.500;10.176;2023-03-23T09:24:17;1.40;;;1.30;;
7029;SDS011;3556;53.500;10.176;2023-03-23T09:26:44;12.17;;;1.87;;
7029;SDS011;3556;53.500;10.176;2023-03-23T09:29:10;3.10;;;1.50;;
7029;SDS011;3556;53.500;10.176;2023-03-23T09:31:37;1.87;;;1.67;;
7029;SDS011;3556;53.500;10.176;2023-03-23T09:34:04;3.23;;;1.90;;
7029;SDS011;3556;53.500;10.176;2023-03-23T09:36:31;2.40;;;1.60;;
7029;SDS011;3556;53.500;10.176;2023-03-23T09:38:57;2.50;;;2.03;;
7029;SDS011;3556;53.500;10.176;2023-03-23T09:47:44;2.50;;;1.80;;
7029;SDS011;3556;53.500;10.176;2023-03-23T09:50:28;6.23;;;1.70;;
7029;SDS011;3556;53.500;10.176;2023-03-23T09:53:10;7.67;;;1.90;;
7029;SDS011;3556;53.500;10.176;2023-03-23T09:55:43;7.67;;;1.80;;
7029;SDS011;3556;53.500;10.176;2023-03-23T09:58:17;4.30;;;1.90;;
7029;SDS011;3556;53.500;10.176;2023-03-23T10:03:37;9.23;;;2.80;;
7029;SDS011;3556;53.500;10.176;2023-03-23T10:06:07;9.67;;;2.40;;
7029;SDS011;3556;53.500;10.176;2023-03-23T10:08:36;5.67;;;2.10;;
7029;SDS011;3556;53.500;10.176;2023-03-23T10:14:29;11.40;;;2.57;;
7029;SDS011;3556;53.500;10.176;2023-03-23T10:22:45;11.30;;;2.60;;
7029;SDS011;3556;53.500;10.176;2023-03-23T10:25:22;16.53;;;2.33;;
7029;SDS011;3556;53.500;10.176;2023-03-23T10:30:46;7.10;;;2.27;;
7029;SDS011;3556;53.500;10.176;2023-03-23T10:33:20;8.30;;;2.50;;
7029;SDS011;3556;53.500;10.176;2023-03-23T10:38:27;8.17;;;2.17;;
7029;SDS011;3556;53.500;10.176;2023-03-23T10:41:06;11.10;;;2.33;;
7029;SDS011;3556;53.500;10.176;2023-03-23T10:43:39;6.23;;;2.50;;
7029;SDS011;3556;53.500;10.176;2023-03-23T10:49:01;6.93;;;2.30;;
7029;SDS011;3556;53.500;10.176;2023-03-23T10:51:34;10.23;;;2.70;;
7029;SDS011;3556;53.500;10.176;2023-03-23T10:54:02;7.13;;;2.10;;
7029;SDS011;3556;53.500;10.176;2023-03-23T10:56:35;6.93;;;2.33;;
7029;SDS011;3556;53.500;10.176;2023-03-23T10:59:17;5.03;;;2.70;;
7029;SDS011;3556;53.500;10.176;2023-03-23T11:01:45;10.57;;;2.67;;
7029;SDS011;3556;53.500;10.176;2023-03-23T11:04:15;4.37;;;2.43;;
7029;SDS011;3556;53.500;10.176;2023-03-23T11:06:46;5.27;;;2.37;;
7029;SDS011;3556;53.500;10.176;2023-03-23T11:09:16;8.00;;;2.33;;
7029;SDS011;3556;53.500;10.176;2023-03-23T11:11:53;9.70;;;2.87;;
7029;SDS011;3556;53.500;10.176;2023-03-23T11:14:34;8.67;;;2.70;;
7029;SDS011;3556;53.500;10.176;2023-03-23T11:17:04;8.63;;;2.07;;
7029;SDS011;3556;53.500;10.176;2023-03-23T11:19:44;13.10;;;2.53;;
7029;SDS011;3556;53.500;10.176;2023-03-23T11:22:19;11.37;;;3.10;;
7029;SDS011;3556;53.500;10.176;2023-03-23T11:24:52;11.10;;;2.87;;
7029;SDS011;3556;53.500;10.176;2023-03-23T11:27:20;12.53;;;3.17;;
7029;SDS011;3556;53.500;10.176;2023-03-23T11:32:18;8.23;;;3.00;;
7029;SDS011;3556;53.500;10.176;2023-03-23T11:34:48;12.73;;;3.30;;
7029;SDS011;3556;53.500;10.176;2023-03-23T11:42:37;12.53;;;3.20;;
7029;SDS011;3556;53.500;10.176;2023-03-23T11:45:17;14.20;;;3.30;;
7029;SDS011;3556;53.500;10.176;2023-03-23T11:47:45;13.63;;;3.13;;
7029;SDS011;3556;53.500;10.176;2023-03-23T11:53:22;10.67;;;3.30;;
7029;SDS011;3556;53.500;10.176;2023-03-23T11:56:08;10.43;;;3.70;;
7029;SDS011;3556;53.500;10.176;2023-03-23T11:58:50;15.43;;;3.37;;
7029;SDS011;3556;53.500;10.176;2023-03-23T12:01:28;6.57;;;3.23;;
7029;SDS011;3556;53.500;10.176;2023-03-23T12:09:31;8.70;;;3.33;;
7029;SDS011;3556;53.500;10.176;2023-03-23T12:12:11;6.60;;;3.17;;
7029;SDS011;3556;53.500;10.176;2023-03-23T12:30:50;9.60;;;3.27;;
7029;SDS011;3556;53.500;10.176;2023-03-23T12:36:08;4.30;;;2.73;;
7029;SDS011;3556;53.500;10.176;2023-03-23T12:41:36;7.50;;;3.40;;
7029;SDS011;3556;53.500;10.176;2023-03-23T12:44:13;19.40;;;3.13;;
7029;SDS011;3556;53.500;10.176;2023-03-23T13:02:37;16.00;;;3.90;;
7029;SDS011;3556;53.500;10.176;2023-03-23T13:10:42;7.83;;;3.40;;
7029;SDS011;3556;53.500;10.176;2023-03-23T13:13:18;10.17;;;3.30;;
7029;SDS011;3556;53.500;10.176;2023-03-23T13:15:56;8.63;;;3.90;;
7029;SDS011;3556;53.500;10.176;2023-03-23T13:21:25;14.17;;;3.60;;
7029;SDS011;3556;53.500;10.176;2023-03-23T13:23:58;7.47;;;2.90;;
7029;SDS011;3556;53.500;10.176;2023-03-23T13:26:28;6.83;;;4.03;;
7029;SDS011;3556;53.500;10.176;2023-03-23T13:31:33;3.93;;;3.30;;
7029;SDS011;3556;53.500;10.176;2023-03-23T13:39:27;6.47;;;3.20;;
7029;SDS011;3556;53.500;10.176;2023-03-23T13:47:22;6.03;;;2.60;;
7029;SDS011;3556;53.500;10.176;2023-03-23T14:03:15;4.03;;;2.10;;
7029;SDS011;3556;53.500;10.176;2023-03-23T14:10:54;1.90;;;1.70;;
7029;SDS011;3556;53.500;10.176;2023-03-23T14:16:22;2.43;;;1.80;;
7029;SDS011;3556;53.500;10.176;2023-03-23T14:18:55;3.20;;;1.83;;
7029;SDS011;3556;53.500;10.176;2023-03-23T14:24:15;2.20;;;1.80;;
7029;SDS011;3556;53.500;10.176;2023-03-23T14:26:42;1.93;;;1.63;;
7029;SDS011;3556;53.500;10.176;2023-03-23T14:29:09;6.10;;;1.93;;
7029;SDS011;3556;53.500;10.176;2023-03-23T14:31:37;1.60;;;1.27;;
7029;SDS011;3556;53.500;10.176;2023-03-23T14:34:09;2.33;;;1.70;;
7029;SDS011;3556;53.500;10.176;2023-03-23T14:36:40;2.13;;;1.77;;
7029;SDS011;3556;53.500;10.176;2023-03-23T14:39:12;4.10;;;1.80;;
7029;SDS011;3556;53.500;10.176;2023-03-23T14:41:43;3.20;;;1.77;;
7029;SDS011;3556;53.500;10.176;2023-03-23T14:44:21;3.57;;;2.23;;
7029;SDS011;3556;53.500;10.176;2023-03-23T14:46:50;2.20;;;1.40;;
7029;SDS011;3556;53.500;10.176;2023-03-23T14:49:19;1.70;;;1.60;;
7029;SDS011;3556;53.500;10.176;2023-03-23T14:51:52;6.73;;;1.60;;
7029;SDS011;3556;53.500;10.176;2023-03-23T14:54:23;2.20;;;1.80;;
7029;SDS011;3556;53.500;10.176;2023-03-23T14:56:53;2.43;;;1.33;;
7029;SDS011;3556;53.500;10.176;2023-03-23T14:59:20;4.47;;;1.60;;
7029;SDS011;3556;53.500;10.176;2023-03-23T15:01:47;1.87;;;1.20;;
7029;SDS011;3556;53.500;10.176;2023-03-23T15:04:17;3.30;;;1.60;;
7029;SDS011;3556;53.500;10.176;2023-03-23T15:06:55;1.83;;;1.50;;
7029;SDS011;3556;53.500;10.176;2023-03-23T15:09:25;4.90;;;1.67;;
7029;SDS011;3556;53.500;10.176;2023-03-23T15:11:56;2.50;;;1.70;;
7029;SDS011;3556;53.500;10.176;2023-03-23T15:14:27;3.10;;;1.73;;
7029;SDS011;3556;53.500;10.176;2023-03-23T15:16:56;3.30;;;1.47;;
7029;SDS011;3556;53.500;10.176;2023-03-23T15:19:34;2.13;;;1.60;;
7029;SDS011;3556;53.500;10.176;2023-03-23T15:27:41;2.60;;;1.73;;
7029;SDS011;3556;53.500;10.176;2023-03-23T15:32:51;2.50;;;1.70;;
7029;SDS011;3556;53.500;10.176;2023-03-23T15:35:23;2.13;;;1.70;;
7029;SDS011;3556;53.500;10.176;2023-03-23T15:37:51;3.90;;;2.07;;
7029;SDS011;3556;53.500;10.176;2023-03-23T15:40:25;5.40;;;2.60;;
7029;SDS011;3556;53.500;10.176;2023-03-23T15:51:20;2.43;;;1.97;;
7029;SDS011;3556;53.500;10.176;2023-03-23T15:53:47;2.40;;;1.67;;
7029;SDS011;3556;53.500;10.176;2023-03-23T15:56:14;2.30;;;1.90;;
7029;SDS011;3556;53.500;10.176;2023-03-23T15:58:41;3.23;;;1.73;;
7029;SDS011;3556;53.500;10.176;2023-03-23T16:01:17;4.27;;;1.43;;
7029;SDS011;3556;53.500;10.176;2023-03-23T16:03:49;1.27;;;1.17;;
7029;SDS011;3556;53.500;10.176;2023-03-23T16:06:17;2.20;;;1.40;;
7029;SDS011;3556;53.500;10.176;2023-03-23T16:08:44;3.93;;;1.53;;
7029;SDS011;3556;53.500;10.176;2023-03-23T16:11:11;1.30;;;1.20;;
7029;SDS011;3556;53.500;10.176;2023-03-23T16:13:38;4.10;;;1.63;;
7029;SDS011;3556;53.500;10.176;2023-03-23T16:16:04;5.43;;;1.50;;
7029;SDS011;3556;53.500;10.176;2023-03-23T16:18:32;1.50;;;1.30;;
7029;SDS011;3556;53.500;10.176;2023-03-23T16:20:58;5.07;;;1.67;;
7029;SDS011;3556;53.500;10.176;2023-03-23T16:23:25;1.70;;;1.27;;
7029;SDS011;3556;53.500;10.176;2023-03-23T16:25:51;1.57;;;1.33;;
7029;SDS011;3556;53.500;10.176;2023-03-23T16:28:16;1.50;;;1.40;;
7029;SDS011;3556;53.500;10.176;2023-03-23T16:30:43;2.33;;;1.80;;
7029;SDS011;3556;53.500;10.176;2023-03-23T16:33:09;1.67;;;1.57;;
7029;SDS011;3556;53.500;10.176;2023-03-23T16:35:35;1.50;;;1.40;;
7029;SDS011;3556;53.500;10.176;2023-03-23T16:38:01;2.00;;;1.90;;
7029;SDS011;3556;53.500;10.176;2023-03-23T16:40:27;4.70;;;2.63;;
7029;SDS011;3556;53.500;10.176;2023-03-23T16:42:53;4.87;;;1.90;;
7029;SDS011;3556;53.500;10.176;2023-03-23T16:45:19;2.37;;;1.77;;
7029;SDS011;3556;53.500;10.176;2023-03-23T16:47:45;1.63;;;1.40;;
7029;SDS011;3556;53.500;10.176;2023-03-23T16:50:12;2.30;;;2.13;;
7029;SDS011;3556;53.500;10.176;2023-03-23T16:52:40;2.33;;;1.80;;
7029;SDS011;3556;53.500;10.176;2023-03-23T16:55:08;7.90;;;3.60;;
7029;SDS011;3556;53.500;10.176;2023-03-23T16:57:35;4.93;;;2.90;;
7029;SDS011;3556;53.500;10.176;2023-03-23T17:00:02;5.97;;;1.77;;
7029;SDS011;3556;53.500;10.176;2023-03-23T17:02:30;5.97;;;4.13;;
7029;SDS011;3556;53.500;10.176;2023-03-23T17:04:56;6.87;;;6.37;;
7029;SDS011;3556;53.500;10.176;2023-03-23T17:07:22;4.10;;;3.87;;
7029;SDS011;3556;53.500;10.176;2023-03-23T17:09:48;5.97;;;3.00;;
7029;SDS011;3556;53.500;10.176;2023-03-23T17:12:14;3.53;;;2.20;;
7029;SDS011;3556;53.500;10.176;2023-03-23T17:14:40;2.30;;;2.10;;
7029;SDS011;3556;53.500;10.176;2023-03-23T17:17:06;3.17;;;2.20;;
7029;SDS011;3556;53.500;10.176;2023-03-23T17:19:32;3.10;;;2.50;;
7029;SDS011;3556;53.500;10.176;2023-03-23T17:21:57;2.40;;;2.20;;
7029;SDS011;3556;53.500;10.176;2023-03-23T17:24:23;3.20;;;2.57;;
7029;SDS011;3556;53.500;10.176;2023-03-23T17:26:49;2.30;;;2.10;;
7029;SDS011;3556;53.500;10.176;2023-03-23T17:29:15;4.13;;;2.13;;
7029;SDS011;3556;53.500;10.176;2023-03-23T17:31:40;2.43;;;2.17;;
7029;SDS011;3556;53.500;10.176;2023-03-23T17:34:06;2.53;;;2.20;;
7029;SDS011;3556;53.500;10.176;2023-03-23T17:36:32;4.67;;;2.73;;
7029;SDS011;3556;53.500;10.176;2023-03-23T17:38:58;3.30;;;2.13;;
7029;SDS011;3556;53.500;10.176;2023-03-23T17:41:23;2.60;;;2.07;;
7029;SDS011;3556;53.500;10.176;2023-03-23T17:43:49;2.20;;;2.10;;